Time,TemperatureF,DewpointF,PressureIn,WindDirection,WindDirectionDegrees,WindSpeedMPH,WindSpeedGustMPH,Humidity,HourlyPrecipIn,Conditions,Clouds,dailyrainin,SolarRadiationWatts/m^2,SoftwareType,DateUTC
2014-09-16 00:03:00,39.0,38.0,-100.00,North,-999,0.0,2.0,97,0.00,,,0.00,0.000000,,2014-09-16 05:03:00,
2014-09-16 00:13:00,39.0,38.0,-100.00,North,-999,0.0,2.0,97,0.00,,,0.00,0.000000,,2014-09-16 05:13:00,
2014-09-16 00:20:00,38.0,37.0,-100.00,North,-999,0.0,2.0,97,0.00,,,0.00,0.000000,,2014-09-16 05:20:00,
2014-09-16 00:53:00,38.0,37.0,-100.00,North,-999,0.0,2.0,97,0.00,,,0.00,0.000000,,2014-09-16 05:53:00,
2014-09-16 01:02:00,38.0,37.0,-100.00,North,-999,0.0,2.0,97,0.00,,,0.00,0.000000,,2014-09-16 06:02:00,
2014-09-16 01:13:00,38.0,37.0,-100.00,North,-999,0.0,2.0,97,0.00,,,0.00,0.000000,,2014-09-16 06:13:00,
2014-09-16 01:20:00,37.0,36.0,-100.00,West,260,2.0,2.0,97,0.00,,,0.00,0.000000,,2014-09-16 06:20:00,
2014-09-16 01:52:00,37.0,36.0,-100.00,West,260,2.0,2.0,97,0.00,,,0.00,0.000000,,2014-09-16 06:52:00,
2014-09-16 02:03:00,37.0,36.0,-100.00,West,260,2.0,2.0,97,0.00,,,0.00,0.000000,,2014-09-16 07:03:00,
2014-09-16 02:12:00,37.0,36.0,-100.00,West,260,2.0,2.0,97,0.00,,,0.00,0.000000,,2014-09-16 07:12:00,
2014-09-16 02:20:00,38.0,37.0,-100.00,SSW,205,1.0,2.0,98,0.00,,,-99.99,0.000000,,2014-09-16 07:20:00,
2014-09-16 02:53:00,38.0,37.0,-100.00,SSW,205,1.0,2.0,98,0.00,,,-99.99,0.000000,,2014-09-16 07:53:00,
2014-09-16 03:02:00,38.0,37.0,-100.00,SSW,205,1.0,2.0,98,0.00,,,-99.99,0.000000,,2014-09-16 08:02:00,
2014-09-16 03:12:00,38.0,37.0,-100.00,SSW,205,1.0,2.0,98,0.00,,,-99.99,0.000000,,2014-09-16 08:12:00,
2014-09-16 03:20:00,37.0,36.0,-100.00,North,-999,0.0,2.0,98,0.00,,,0.00,0.000000,,2014-09-16 08:20:00,
2014-09-16 03:52:00,37.0,36.0,-100.00,North,-999,0.0,2.0,98,0.00,,,0.00,0.000000,,2014-09-16 08:52:00,
2014-09-16 04:02:00,37.0,36.0,-100.00,North,-999,0.0,2.0,98,0.00,,,0.00,0.000000,,2014-09-16 09:02:00,
2014-09-16 04:12:00,37.0,36.0,-100.00,North,-999,0.0,2.0,98,0.00,,,0.00,0.000000,,2014-09-16 09:12:00,
2014-09-16 04:20:00,37.0,36.0,-100.00,North,-999,0.0,2.0,98,0.00,,,0.00,0.000000,,2014-09-16 09:20:00,
2014-09-16 04:54:00,37.0,36.0,-100.00,North,-999,0.0,2.0,98,0.00,,,0.00,0.000000,,2014-09-16 09:54:00,
2014-09-16 05:04:00,37.0,36.0,-100.00,North,-999,0.0,2.0,98,0.00,,,0.00,0.000000,,2014-09-16 10:04:00,
2014-09-16 05:14:00,37.0,36.0,-100.00,North,-999,0.0,2.0,98,0.00,,,0.00,0.000000,,2014-09-16 10:14:00,
2014-09-16 05:20:00,36.0,35.0,-100.00,North,-999,0.0,0.0,98,0.00,,,0.00,0.000000,,2014-09-16 10:20:00,
2014-09-16 05:54:00,36.0,35.0,-100.00,North,-999,0.0,0.0,98,0.00,,,0.00,0.000000,,2014-09-16 10:54:00,
2014-09-16 06:03:00,36.0,35.0,-100.00,North,-999,0.0,0.0,98,0.00,,,0.00,0.000000,,2014-09-16 11:03:00,
2014-09-16 06:12:00,36.0,35.0,-100.00,North,-999,0.0,0.0,98,0.00,,,0.00,0.000000,,2014-09-16 11:12:00,
2014-09-16 06:20:00,36.0,35.0,-100.00,North,-999,0.0,2.0,98,0.00,,,0.00,0.000000,,2014-09-16 11:20:00,
2014-09-16 06:52:00,36.0,35.0,-100.00,North,-999,0.0,2.0,98,0.00,,,0.00,0.000000,,2014-09-16 11:52:00,
2014-09-16 07:03:00,36.0,35.0,-100.00,North,-999,0.0,2.0,98,0.00,,,0.00,0.000000,,2014-09-16 12:03:00,
2014-09-16 07:13:00,36.0,35.0,-100.00,North,-999,0.0,2.0,98,0.00,,,0.00,0.000000,,2014-09-16 12:13:00,
2014-09-16 07:20:00,35.0,34.0,-100.00,North,-999,0.0,2.0,98,0.00,,,0.00,6.000000,,2014-09-16 12:20:00,
2014-09-16 07:53:00,35.0,34.0,-100.00,North,-999,0.0,2.0,98,0.00,,,0.00,6.000000,,2014-09-16 12:53:00,
2014-09-16 08:04:00,35.0,34.0,-100.00,North,-999,0.0,2.0,98,0.00,,,0.00,6.000000,,2014-09-16 13:04:00,
2014-09-16 08:12:00,35.0,34.0,-100.00,North,-999,0.0,2.0,98,0.00,,,0.00,6.000000,,2014-09-16 13:12:00,
2014-09-16 08:20:00,43.0,42.0,-100.00,WSW,239,3.0,4.0,97,0.00,,,0.00,137.000000,,2014-09-16 13:20:00,
2014-09-16 08:54:00,43.0,42.0,-100.00,WSW,239,3.0,4.0,97,0.00,,,0.00,137.000000,,2014-09-16 13:54:00,
2014-09-16 09:03:00,43.0,42.0,-100.00,WSW,239,3.0,4.0,97,0.00,,,0.00,137.000000,,2014-09-16 14:03:00,
2014-09-16 09:12:00,43.0,42.0,-100.00,WSW,239,3.0,4.0,97,0.00,,,0.00,137.000000,,2014-09-16 14:12:00,
2014-09-16 09:20:00,52.0,44.0,-100.00,WSW,244,5.0,11.0,73,0.00,,,0.00,343.000000,,2014-09-16 14:20:00,
2014-09-16 09:52:00,52.0,44.0,-100.00,WSW,244,5.0,11.0,73,0.00,,,0.00,343.000000,,2014-09-16 14:52:00,
2014-09-16 10:02:00,52.0,44.0,-100.00,WSW,244,5.0,11.0,73,0.00,,,0.00,343.000000,,2014-09-16 15:02:00,
2014-09-16 10:12:00,52.0,44.0,-100.00,WSW,244,5.0,11.0,73,0.00,,,0.00,343.000000,,2014-09-16 15:12:00,
2014-09-16 10:20:00,59.0,43.0,-100.00,SW,228,7.0,10.0,55,0.00,,,0.00,538.000000,,2014-09-16 15:20:00,
2014-09-16 10:54:00,59.0,43.0,-100.00,SW,228,7.0,10.0,55,0.00,,,0.00,538.000000,,2014-09-16 15:54:00,
2014-09-16 11:04:00,59.0,43.0,-100.00,SW,228,7.0,10.0,55,0.00,,,0.00,538.000000,,2014-09-16 16:04:00,
2014-09-16 11:14:00,59.0,43.0,-100.00,SW,228,7.0,10.0,55,0.00,,,0.00,538.000000,,2014-09-16 16:14:00,
2014-09-16 11:20:00,63.0,44.0,-100.00,SW,217,7.0,13.0,49,0.00,,,0.00,697.000000,,2014-09-16 16:20:00,
2014-09-16 11:54:00,63.0,44.0,-100.00,SW,217,7.0,13.0,49,0.00,,,0.00,697.000000,,2014-09-16 16:54:00,
2014-09-16 12:04:00,63.0,44.0,-100.00,SW,217,7.0,13.0,49,0.00,,,0.00,697.000000,,2014-09-16 17:04:00,
2014-09-16 12:13:00,63.0,44.0,-100.00,SW,217,7.0,13.0,49,0.00,,,0.00,697.000000,,2014-09-16 17:13:00,
2014-09-16 12:20:00,65.0,43.0,-100.00,WSW,244,9.0,13.0,45,0.00,,,0.00,806.000000,,2014-09-16 17:20:00,
2014-09-16 12:53:00,65.0,43.0,-100.00,WSW,244,9.0,13.0,45,0.00,,,0.00,806.000000,,2014-09-16 17:53:00,
2014-09-16 13:03:00,65.0,43.0,-100.00,WSW,244,9.0,13.0,45,0.00,,,0.00,806.000000,,2014-09-16 18:03:00,
2014-09-16 13:13:00,65.0,43.0,-100.00,WSW,244,9.0,13.0,45,0.00,,,0.00,806.000000,,2014-09-16 18:13:00,
2014-09-16 13:20:00,67.0,43.0,-100.00,WSW,244,7.0,16.0,42,0.00,,,0.00,859.000000,,2014-09-16 18:20:00,
2014-09-16 13:53:00,67.0,43.0,-100.00,WSW,244,7.0,16.0,42,0.00,,,0.00,859.000000,,2014-09-16 18:53:00,
2014-09-16 14:02:00,67.0,43.0,-100.00,WSW,244,7.0,16.0,42,0.00,,,0.00,859.000000,,2014-09-16 19:02:00,
2014-09-16 14:12:00,67.0,43.0,-100.00,WSW,244,7.0,16.0,42,0.00,,,0.00,859.000000,,2014-09-16 19:12:00,
2014-09-16 14:20:00,68.0,41.0,-100.00,SSW,208,6.0,13.0,38,0.00,,,0.00,849.000000,,2014-09-16 19:20:00,
2014-09-16 14:53:00,68.0,41.0,-100.00,SSW,208,6.0,13.0,38,0.00,,,0.00,849.000000,,2014-09-16 19:53:00,
2014-09-16 15:03:00,68.0,41.0,-100.00,SSW,208,6.0,13.0,38,0.00,,,0.00,849.000000,,2014-09-16 20:03:00,
2014-09-16 15:13:00,68.0,41.0,-100.00,SSW,208,6.0,13.0,38,0.00,,,0.00,849.000000,,2014-09-16 20:13:00,
2014-09-16 15:20:00,69.0,43.0,-100.00,WSW,239,6.0,11.0,39,0.00,,,0.00,777.000000,,2014-09-16 20:20:00,
2014-09-16 15:52:00,69.0,43.0,-100.00,WSW,239,6.0,11.0,39,0.00,,,0.00,777.000000,,2014-09-16 20:52:00,
2014-09-16 16:02:00,69.0,43.0,-100.00,WSW,239,6.0,11.0,39,0.00,,,0.00,777.000000,,2014-09-16 21:02:00,
2014-09-16 16:12:00,69.0,43.0,-100.00,WSW,239,6.0,11.0,39,0.00,,,0.00,777.000000,,2014-09-16 21:12:00,
2014-09-16 16:54:00,68.0,42.0,-100.00,SSW,200,6.0,12.0,39,0.00,,,0.00,642.000000,,2014-09-16 21:54:00,
2014-09-16 17:04:00,68.0,42.0,-100.00,SSW,200,6.0,12.0,39,0.00,,,0.00,642.000000,,2014-09-16 22:04:00,
2014-09-16 17:13:00,68.0,42.0,-100.00,SSW,200,6.0,12.0,39,0.00,,,0.00,642.000000,,2014-09-16 22:13:00,